Time;durP1;ratioP1;P1;durP2;ratioP2;P2;SDS_P1;SDS_P2;PMS_P1;PMS_P2;Temp;Humidity;BMP_temperature;BMP_pressure;BME280_temperature;BME280_humidity;BME280_pressure;Samples;Min_cycle;Max_cycle;Signal;HPM_P1;HPM_P2
2022/06/03 00:00:19;;;;;;;2.95;1.27;;;16.10;81.70;;;;;;5071948;28;20179;-67
2022/06/03 00:03:11;;;;;;;3.15;1.67;;;16.00;81.80;;;;;;5072165;28;20181;-66
2022/06/03 00:05:54;;;;;;;1.67;1.40;;;16.00;82.80;;;;;;5069158;28;20188;-67
2022/06/03 00:08:38;;;;;;;2.42;1.38;;;16.00;82.20;;;;;;5072036;28;20255;-67
2022/06/03 00:11:40;;;;;;;1.73;1.13;;;16.00;82.50;;;;;;5071957;28;20200;-67
2022/06/03 00:14:35;;;;;;;1.35;1.20;;;15.90;82.60;;;;;;5072127;28;20287;-66
2022/06/03 00:17:04;;;;;;;2.45;1.30;;;15.90;83.10;;;;;;5071459;28;20214;-66
2022/06/03 00:19:38;;;;;;;2.17;1.30;;;15.90;83.30;;;;;;5072015;28;20715;-67
2022/06/03 00:22:31;;;;;;;3.33;1.23;;;15.80;83.50;;;;;;5071475;28;20671;-67
2022/06/03 00:25:23;;;;;;;1.35;1.23;;;15.80;83.90;;;;;;5069442;28;20181;-66
2022/06/03 00:28:26;;;;;;;1.45;1.35;;;15.80;84.30;;;;;;5069501;28;20185;-66
2022/06/03 00:31:19;;;;;;;2.05;1.65;;;15.70;84.50;;;;;;5063783;28;20180;-66
2022/06/03 00:34:06;;;;;;;1.42;1.35;;;15.70;84.90;;;;;;5071317;28;20181;-66
2022/06/03 00:36:36;;;;;;;1.42;1.33;;;15.60;85.00;;;;;;5072266;28;20175;-67
2022/06/03 00:39:17;;;;;;;1.92;1.45;;;15.60;85.50;;;;;;5071780;28;20182;-67
2022/06/03 00:42:01;;;;;;;1.33;1.20;;;15.60;86.00;;;;;;5065790;28;20177;-66
2022/06/03 00:45:04;;;;;;;2.22;1.35;;;15.60;86.90;;;;;;5071936;28;20181;-66
2022/06/03 00:47:57;;;;;;;1.58;1.48;;;15.60;87.10;;;;;;5070453;28;20655;-67
2022/06/03 00:50:41;;;;;;;1.48;1.38;;;15.60;87.40;;;;;;5071701;28;20216;-67
2022/06/03 00:53:34;;;;;;;1.10;1.10;;;15.60;86.60;;;;;;5071628;28;20189;-67
2022/06/03 00:56:22;;;;;;;1.30;1.30;;;15.60;86.80;;;;;;5059640;28;20635;-66
2022/06/03 00:59:28;;;;;;;1.70;1.20;;;15.50;86.50;;;;;;5062033;28;20177;-67
2022/06/03 01:01:53;;;;;;;3.17;1.30;;;15.50;86.70;;;;;;5067232;28;20179;-67
2022/06/03 01:04:40;;;;;;;1.60;1.50;;;15.40;86.70;;;;;;5070907;28;20172;-66
2022/06/03 01:07:16;;;;;;;1.55;1.20;;;15.40;86.80;;;;;;5071154;28;20644;-66
2022/06/03 01:09:57;;;;;;;4.15;1.30;;;15.40;86.70;;;;;;5071102;28;20176;-66
2022/06/03 01:12:51;;;;;;;1.60;1.30;;;15.40;86.80;;;;;;5071080;28;20232;-67
2022/06/03 01:15:48;;;;;;;1.38;1.27;;;15.40;86.90;;;;;;5070441;28;20177;-65
2022/06/03 01:18:38;;;;;;;1.55;1.40;;;15.40;87.00;;;;;;5060872;28;20227;-65
2022/06/03 01:21:29;;;;;;;1.88;1.42;;;15.30;87.20;;;;;;5070031;28;20189;-65
2022/06/03 01:24:32;;;;;;;3.28;1.65;;;15.30;87.70;;;;;;5071166;28;20192;-64
2022/06/03 01:27:03;;;;;;;1.42;1.20;;;15.20;87.90;;;;;;5070472;28;20192;-64
2022/06/03 01:29:50;;;;;;;3.67;1.38;;;15.20;88.30;;;;;;5071234;28;20193;-64
2022/06/03 01:32:49;;;;;;;1.50;1.40;;;15.20;88.50;;;;;;5070418;28;20281;-64
2022/06/03 01:35:56;;;;;;;1.35;1.25;;;15.10;88.80;;;;;;5063820;28;20184;-64
2022/06/03 01:38:24;;;;;;;2.65;2.45;;;15.00;89.10;;;;;;5067880;28;20607;-65
2022/06/03 01:41:27;;;;;;;2.28;1.42;;;15.00;89.30;;;;;;5070734;28;20688;-65
2022/06/03 01:44:02;;;;;;;1.40;1.30;;;14.90;89.70;;;;;;5071005;28;20184;-65
2022/06/03 01:46:29;;;;;;;1.90;1.63;;;14.90;90.00;;;;;;5074811;28;20180;-65
2022/06/03 01:48:57;;;;;;;2.15;1.40;;;14.80;90.10;;;;;;5074438;28;20181;-64
2022/06/03 01:51:50;;;;;;;1.60;1.50;;;14.80;90.00;;;;;;5074477;28;20208;-65
2022/06/03 01:54:46;;;;;;;1.80;1.40;;;14.90;90.00;;;;;;5074826;28;20212;-65
2022/06/03 01:57:11;;;;;;;1.70;1.60;;;14.90;89.50;;;;;;5073916;28;20576;-64
2022/06/03 01:59:54;;;;;;;1.52;1.38;;;14.90;89.60;;;;;;5074673;28;20196;-65
2022/06/03 02:02:57;;;;;;;2.08;1.63;;;14.90;90.30;;;;;;5073967;28;20219;-65
2022/06/03 02:05:52;;;;;;;1.60;1.50;;;14.90;90.20;;;;;;5068437;28;20193;-65
2022/06/03 02:08:36;;;;;;;1.40;1.30;;;15.00;90.20;;;;;;5074025;28;20188;-65
2022/06/03 02:11:33;;;;;;;1.70;1.60;;;15.00;90.20;;;;;;5072644;28;20207;-64
2022/06/03 02:14:33;;;;;;;1.60;1.50;;;15.00;90.10;;;;;;5073823;28;20180;-65
2022/06/03 02:17:07;;;;;;;1.48;1.40;;;15.00;90.10;;;;;;5074233;28;20188;-65
2022/06/03 02:20:07;;;;;;;1.40;1.30;;;14.90;90.20;;;;;;5073897;28;20220;-65
2022/06/03 02:22:49;;;;;;;1.67;1.30;;;14.90;90.40;;;;;;5067989;28;20212;-64
2022/06/03 02:25:49;;;;;;;1.90;1.73;;;14.90;90.60;;;;;;5068652;28;20185;-65
2022/06/03 02:28:46;;;;;;;2.65;1.52;;;14.90;90.60;;;;;;5072784;28;20604;-65
2022/06/03 02:31:27;;;;;;;4.28;1.52;;;14.80;90.50;;;;;;5073638;28;20671;-65
2022/06/03 02:34:28;;;;;;;1.83;1.38;;;14.80;90.50;;;;;;5073191;28;20215;-65
2022/06/03 02:37:25;;;;;;;1.83;1.30;;;14.70;90.50;;;;;;5069434;28;20196;-65
2022/06/03 02:40:15;;;;;;;1.70;1.38;;;14.70;90.70;;;;;;5074490;28;20536;-65
2022/06/03 02:43:02;;;;;;;2.65;1.30;;;14.70;90.70;;;;;;5072767;28;20636;-65
2022/06/03 02:45:51;;;;;;;2.67;1.48;;;14.70;90.80;;;;;;5073226;28;20643;-65
2022/06/03 02:48:38;;;;;;;1.65;1.25;;;14.70;90.60;;;;;;5072542;28;20504;-65
2022/06/03 02:51:45;;;;;;;1.55;1.45;;;14.70;90.50;;;;;;5073370;28;20180;-65
2022/06/03 02:54:35;;;;;;;1.50;1.33;;;14.70;90.40;;;;;;5061232;28;20228;-64
2022/06/03 02:57:28;;;;;;;2.03;1.30;;;14.70;90.30;;;;;;5072153;28;20181;-64
2022/06/03 03:00:15;;;;;;;3.35;1.50;;;14.70;90.40;;;;;;5065646;28;20173;-65
2022/06/03 03:03:05;;;;;;;1.52;1.30;;;14.60;90.20;;;;;;5073627;28;20187;-65
2022/06/03 03:06:19;;;;;;;1.45;1.35;;;14.60;90.50;;;;;;5073269;28;20211;-65
2022/06/03 03:09:05;;;;;;;2.80;1.52;;;14.60;90.70;;;;;;5076597;28;20185;-65
2022/06/03 03:11:59;;;;;;;4.30;1.40;;;14.60;90.80;;;;;;5070545;28;20223;-65
2022/06/03 03:14:43;;;;;;;1.52;1.38;;;14.70;90.70;;;;;;5073276;28;20204;-65
2022/06/03 03:17:38;;;;;;;1.83;1.70;;;14.70;90.40;;;;;;5072820;28;20663;-65
2022/06/03 03:20:21;;;;;;;12.23;6.05;;;14.70;90.30;;;;;;5063974;28;20234;-64
2022/06/03 03:23:16;;;;;;;7.10;4.05;;;14.70;90.40;;;;;;5069671;28;20627;-65
2022/06/03 03:25:54;;;;;;;4.55;2.75;;;14.60;90.00;;;;;;5072159;28;20561;-65
2022/06/03 03:28:49;;;;;;;2.53;1.70;;;14.60;89.70;;;;;;5063593;28;20548;-65
2022/06/03 03:31:55;;;;;;;1.92;1.58;;;14.50;88.90;;;;;;5072488;28;20214;-64
2022/06/03 03:34:44;;;;;;;2.17;1.40;;;14.50;88.50;;;;;;5059946;28;20189;-65
2022/06/03 03:37:34;;;;;;;1.38;1.20;;;14.50;88.10;;;;;;5040122;28;20208;-66
2022/06/03 03:40:27;;;;;;;2.00;1.70;;;14.50;88.10;;;;;;5071962;28;20184;-67
2022/06/03 03:43:09;;;;;;;4.88;2.35;;;14.40;87.90;;;;;;5063613;28;20177;-67
2022/06/03 03:46:12;;;;;;;2.67;2.10;;;14.50;88.00;;;;;;5073258;28;20184;-66
2022/06/03 03:49:13;;;;;;;5.93;2.00;;;14.50;88.30;;;;;;5053473;28;20174;-64
2022/06/03 03:51:57;;;;;;;3.10;1.35;;;14.60;88.20;;;;;;5056561;28;20200;-65
2022/06/03 03:55:00;;;;;;;1.40;1.30;;;14.60;88.40;;;;;;5071039;28;20193;-66
2022/06/03 03:57:56;;;;;;;1.30;1.20;;;14.60;88.40;;;;;;5073027;28;20183;-67
2022/06/03 04:00:24;;;;;;;1.83;1.35;;;14.60;88.40;;;;;;5071950;28;20185;-67
2022/06/03 04:03:27;;;;;;;1.30;1.20;;;14.60;88.60;;;;;;5071165;28;20172;-66
2022/06/03 04:06:04;;;;;;;2.13;1.30;;;14.50;88.60;;;;;;5072244;28;20337;-64
2022/06/03 04:09:01;;;;;;;1.42;1.25;;;14.50;88.90;;;;;;5062194;28;20185;-68
2022/06/03 04:11:48;;;;;;;1.63;1.40;;;14.50;89.10;;;;;;5067772;28;20229;-65
2022/06/03 04:14:39;;;;;;;4.32;1.20;;;14.50;89.10;;;;;;5052288;28;20178;-65
2022/06/03 04:17:27;;;;;;;1.13;1.13;;;14.40;88.90;;;;;;5063539;28;20176;-63
2022/06/03 04:20:21;;;;;;;1.55;1.45;;;14.50;89.10;;;;;;5072555;28;20217;-62
2022/06/03 04:23:21;;;;;;;1.60;1.20;;;14.50;88.70;;;;;;5071928;28;20177;-68
2022/06/03 04:26:15;;;;;;;1.65;1.30;;;14.50;88.70;;;;;;5072444;28;20177;-64
2022/06/03 04:29:34;;;;;;;2.00;1.67;;;14.60;88.40;;;;;;5058431;28;20202;-62
2022/06/03 04:32:24;;;;;;;1.25;1.25;;;14.60;88.20;;;;;;5071679;28;20208;-62
2022/06/03 04:35:23;;;;;;;1.33;1.30;;;14.60;88.00;;;;;;5072523;28;20229;-63
2022/06/03 04:38:13;;;;;;;3.25;1.17;;;14.70;88.10;;;;;;5071658;28;20184;-60
2022/06/03 04:40:57;;;;;;;1.45;1.35;;;14.60;88.00;;;;;;5071625;28;20187;-69
2022/06/03 04:43:25;;;;;;;1.58;1.35;;;14.60;87.90;;;;;;5071724;28;20180;-61
2022/06/03 04:46:07;;;;;;;1.77;1.50;;;14.60;87.80;;;;;;5072011;28;20173;-63
2022/06/03 04:48:48;;;;;;;2.22;1.80;;;14.60;87.80;;;;;;5071737;28;20635;-63
2022/06/03 04:51:33;;;;;;;1.65;1.55;;;14.70;88.20;;;;;;5071667;28;20211;-64
2022/06/03 04:54:37;;;;;;;1.38;1.30;;;14.90;88.20;;;;;;5071523;28;20647;-64
2022/06/03 04:57:50;;;;;;;2.17;1.40;;;15.20;87.40;;;;;;5052186;28;20231;-64
2022/06/03 05:00:24;;;;;;;1.55;1.20;;;15.70;86.10;;;;;;5070413;28;20185;-64
2022/06/03 05:03:14;;;;;;;1.42;1.33;;;16.50;85.90;;;;;;5072009;28;20175;-64
2022/06/03 05:06:13;;;;;;;3.20;1.35;;;17.20;82.50;;;;;;5071942;28;20647;-64
2022/06/03 05:09:03;;;;;;;1.38;1.27;;;17.90;80.10;;;;;;5054883;28;20235;-66
2022/06/03 05:12:03;;;;;;;1.83;1.20;;;18.40;77.20;;;;;;5062772;28;20208;-65
2022/06/03 05:14:52;;;;;;;1.33;1.23;;;18.90;75.60;;;;;;5071732;28;20265;-65
2022/06/03 05:17:36;;;;;;;1.08;1.08;;;19.30;74.00;;;;;;5071596;28;20184;-65
2022/06/03 05:20:13;;;;;;;1.10;1.10;;;19.70;73.70;;;;;;5072334;28;20307;-65
2022/06/03 05:23:12;;;;;;;2.35;1.30;;;19.80;71.70;;;;;;5074639;28;20172;-65
2022/06/03 05:25:41;;;;;;;1.60;1.30;;;20.10;71.40;;;;;;5075396;28;20177;-65
2022/06/03 05:28:43;;;;;;;3.00;1.30;;;20.50;70.40;;;;;;5075894;28;20176;-65
2022/06/03 05:31:30;;;;;;;1.55;1.30;;;20.90;68.90;;;;;;5075833;28;20173;-65
2022/06/03 05:34:02;;;;;;;1.48;1.17;;;21.20;67.90;;;;;;5075855;28;20173;-65
2022/06/03 05:36:45;;;;;;;1.45;1.35;;;21.80;67.10;;;;;;5075845;28;20181;-65
2022/06/03 05:39:48;;;;;;;1.40;1.30;;;22.20;65.30;;;;;;5075734;28;20173;-65
2022/06/03 05:43:00;;;;;;;1.45;1.35;;;22.70;63.60;;;;;;5068927;28;20191;-65
2022/06/03 05:45:26;;;;;;;2.08;1.33;;;23.20;61.80;;;;;;5065310;28;20648;-65
2022/06/03 05:47:54;;;;;;;1.73;1.20;;;23.50;60.60;;;;;;5075048;28;20180;-64
2022/06/03 05:50:45;;;;;;;1.85;1.38;;;23.70;59.40;;;;;;5075193;28;20205;-64
2022/06/03 05:53:44;;;;;;;1.67;1.45;;;23.90;59.50;;;;;;5074978;28;20262;-65
2022/06/03 05:56:51;;;;;;;1.27;1.20;;;24.10;59.00;;;;;;5066229;28;20190;-65
2022/06/03 05:59:28;;;;;;;4.15;1.63;;;24.40;57.90;;;;;;5032678;28;20213;-65
2022/06/03 06:02:18;;;;;;;1.45;1.35;;;24.60;57.40;;;;;;5053258;28;20213;-66
2022/06/03 06:04:52;;;;;;;1.05;1.05;;;24.80;57.40;;;;;;5055456;28;20216;-65
2022/06/03 06:07:27;;;;;;;1.10;1.10;;;25.10;57.10;;;;;;5055090;28;20177;-65
2022/06/03 06:10:08;;;;;;;1.73;1.40;;;25.40;56.40;;;;;;5055404;28;20169;-65
2022/06/03 06:13:01;;;;;;;1.40;1.30;;;25.80;55.80;;;;;;5055284;28;20221;-65
2022/06/03 06:15:48;;;;;;;1.90;1.33;;;26.20;55.10;;;;;;5055248;28;20186;-65
2022/06/03 06:18:19;;;;;;;2.08;1.13;;;26.10;54.20;;;;;;5054788;28;20237;-67
2022/06/03 06:21:29;;;;;;;1.90;1.10;;;26.20;54.80;;;;;;5055087;28;20177;-67
2022/06/03 06:24:11;;;;;;;2.53;1.38;;;26.80;54.40;;;;;;5038087;28;20193;-67
2022/06/03 06:26:49;;;;;;;1.30;1.20;;;27.60;53.10;;;;;;5054915;28;20773;-67
2022/06/03 06:29:38;;;;;;;2.03;1.40;;;28.10;52.10;;;;;;5054852;28;20196;-67
2022/06/03 06:32:45;;;;;;;4.32;1.50;;;28.10;50.70;;;;;;5054470;28;20201;-67
2022/06/03 06:35:35;;;;;;;1.50;1.40;;;27.30;51.40;;;;;;5054655;28;20177;-67
2022/06/03 06:38:19;;;;;;;2.25;1.30;;;26.80;52.80;;;;;;5054650;28;20170;-67
2022/06/03 06:41:06;;;;;;;2.13;1.40;;;26.70;53.30;;;;;;5054803;28;20197;-67
2022/06/03 06:43:34;;;;;;;2.20;1.50;;;26.80;53.80;;;;;;5054690;28;20638;-67
2022/06/03 06:46:22;;;;;;;1.85;1.45;;;27.60;53.50;;;;;;5053219;28;20546;-66
2022/06/03 06:49:30;;;;;;;1.80;1.30;;;28.20;51.80;;;;;;5054748;28;20496;-67
2022/06/03 06:52:16;;;;;;;1.10;1.10;;;28.60;51.60;;;;;;5053525;28;20224;-67
2022/06/03 06:55:32;;;;;;;2.28;1.33;;;29.00;50.90;;;;;;5054497;28;20172;-67
2022/06/03 06:58:03;;;;;;;2.67;1.40;;;29.20;50.50;;;;;;5032035;28;20356;-67
2022/06/03 07:00:40;;;;;;;1.40;1.30;;;29.40;50.10;;;;;;5052691;28;20608;-65
2022/06/03 07:03:18;;;;;;;1.80;1.40;;;29.60;50.00;;;;;;5054300;28;20268;-65
2022/06/03 07:05:53;;;;;;;2.45;1.30;;;29.70;49.90;;;;;;5054317;28;20310;-65
2022/06/03 07:08:23;;;;;;;4.20;1.65;;;29.90;49.70;;;;;;5054203;28;20711;-65
2022/06/03 07:11:05;;;;;;;2.45;1.40;;;30.30;48.90;;;;;;5054144;28;20169;-65
2022/06/03 07:13:30;;;;;;;2.53;1.33;;;30.50;49.00;;;;;;5054153;28;20185;-65
2022/06/03 07:16:09;;;;;;;1.83;1.50;;;30.80;48.80;;;;;;5053960;28;20220;-65
2022/06/03 07:21:56;;;;;;;2.53;1.50;;;30.80;48.40;;;;;;5054254;28;20585;-65
2022/06/03 07:24:42;;;;;;;2.65;1.30;;;31.00;49.00;;;;;;5053699;28;20181;-65
2022/06/03 07:27:16;;;;;;;3.42;1.67;;;31.50;48.50;;;;;;5053844;28;20538;-66
2022/06/03 07:30:10;;;;;;;2.00;1.60;;;31.80;47.70;;;;;;5053755;28;20185;-65
2022/06/03 07:32:42;;;;;;;1.90;1.45;;;31.70;47.40;;;;;;5053631;28;20263;-65
2022/06/03 07:35:26;;;;;;;1.60;1.50;;;31.80;47.50;;;;;;5053574;28;20204;-65
2022/06/03 07:38:24;;;;;;;2.60;1.40;;;31.80;47.50;;;;;;5052407;28;20592;-65
2022/06/03 07:41:06;;;;;;;3.13;1.40;;;31.80;48.30;;;;;;5053467;28;20177;-65
2022/06/03 07:43:54;;;;;;;2.83;1.60;;;32.10;47.80;;;;;;5052901;28;20177;-65
2022/06/03 07:46:25;;;;;;;3.47;1.92;;;32.30;48.10;;;;;;5053415;28;20259;-65
2022/06/03 07:48:51;;;;;;;2.30;2.10;;;32.10;47.40;;;;;;5053289;28;20226;-65
2022/06/03 07:51:33;;;;;;;2.13;1.42;;;31.80;47.90;;;;;;5053175;28;20537;-65
2022/06/03 07:54:12;;;;;;;3.65;1.73;;;31.70;48.50;;;;;;5053265;28;20181;-65
2022/06/03 07:56:38;;;;;;;3.00;1.80;;;32.10;48.50;;;;;;5053447;28;20177;-65
2022/06/03 07:59:09;;;;;;;1.60;1.50;;;32.10;47.90;;;;;;5053186;28;20212;-65
2022/06/03 08:01:38;;;;;;;2.03;1.83;;;31.90;48.50;;;;;;5053273;28;20589;-65
2022/06/03 08:04:07;;;;;;;2.55;1.90;;;31.80;49.10;;;;;;5053066;28;20290;-65
2022/06/03 08:12:14;;;;;;;4.85;2.00;;;31.60;50.70;;;;;;5052999;28;20296;-65
2022/06/03 08:14:40;;;;;;;2.10;1.90;;;31.60;50.20;;;;;;5053014;28;20181;-65
2022/06/03 08:17:08;;;;;;;2.28;1.77;;;31.40;50.50;;;;;;5052862;28;20185;-65
2022/06/03 08:19:35;;;;;;;6.28;2.20;;;30.90;50.80;;;;;;5052658;28;20228;-66
2022/06/03 08:22:04;;;;;;;3.15;2.00;;;30.60;51.40;;;;;;5052820;28;20227;-65
2022/06/03 08:24:34;;;;;;;4.00;2.05;;;30.00;52.30;;;;;;5052831;28;20173;-65
2022/06/03 08:27:05;;;;;;;1.80;1.70;;;29.30;53.30;;;;;;5052747;28;20182;-65
2022/06/03 08:29:45;;;;;;;4.22;2.17;;;28.80;54.60;;;;;;5052695;28;20177;-65
2022/06/03 08:32:16;;;;;;;2.10;1.90;;;28.50;55.60;;;;;;5052534;28;20220;-65
2022/06/03 08:34:52;;;;;;;1.90;1.80;;;28.50;56.60;;;;;;5052692;28;20173;-65
2022/06/03 08:37:25;;;;;;;2.00;1.90;;;28.70;56.00;;;;;;5052564;28;20256;-65
2022/06/03 08:39:53;;;;;;;3.35;2.15;;;28.90;55.60;;;;;;5052426;28;20180;-65
2022/06/03 08:42:45;;;;;;;2.03;1.90;;;28.80;55.80;;;;;;5052460;28;20173;-65
2022/06/03 08:45:24;;;;;;;4.45;2.28;;;28.60;56.30;;;;;;5052336;28;20629;-64
2022/06/03 08:47:58;;;;;;;4.20;2.13;;;28.20;56.70;;;;;;5052452;28;20196;-65
2022/06/03 08:50:42;;;;;;;1.90;1.80;;;28.00;58.40;;;;;;5052475;28;20192;-65
2022/06/03 08:53:12;;;;;;;3.70;2.20;;;28.30;57.70;;;;;;5052134;28;20307;-65
2022/06/03 08:55:55;;;;;;;2.03;1.92;;;28.50;57.10;;;;;;5051252;28;20235;-64
2022/06/03 08:58:45;;;;;;;2.20;2.00;;;28.70;57.30;;;;;;5052300;28;20181;-65
2022/06/03 09:01:34;;;;;;;3.60;2.17;;;29.10;57.00;;;;;;5052315;28;20174;-64
2022/06/03 09:04:20;;;;;;;3.20;2.00;;;29.60;56.20;;;;;;5052262;28;20177;-64
2022/06/03 09:07:08;;;;;;;3.65;2.10;;;29.90;55.70;;;;;;5052215;28;20224;-64
2022/06/03 09:10:01;;;;;;;3.63;1.92;;;30.30;55.30;;;;;;5052239;28;20192;-64
2022/06/03 09:12:29;;;;;;;2.83;2.08;;;30.40;54.90;;;;;;5051939;28;20228;-66
2022/06/03 09:15:08;;;;;;;3.78;1.92;;;30.20;54.30;;;;;;5052027;28;20181;-65
2022/06/03 09:17:39;;;;;;;4.47;2.42;;;30.30;55.30;;;;;;5052118;28;20219;-65
2022/06/03 09:20:14;;;;;;;3.70;2.35;;;30.40;54.20;;;;;;5052109;28;20193;-65
2022/06/03 09:22:40;;;;;;;4.00;2.25;;;30.30;54.60;;;;;;5052177;28;20187;-65
2022/06/03 09:25:07;;;;;;;3.33;2.20;;;30.10;54.50;;;;;;5051875;28;20201;-65
2022/06/03 09:27:34;;;;;;;2.38;2.17;;;29.90;55.30;;;;;;5051991;28;20178;-65
2022/06/03 09:30:04;;;;;;;2.25;2.05;;;29.80;55.20;;;;;;5051985;28;20161;-65
2022/06/03 09:32:37;;;;;;;2.42;2.20;;;29.60;55.60;;;;;;5051735;28;20224;-65
2022/06/03 09:35:08;;;;;;;3.33;1.95;;;29.80;56.20;;;;;;5051882;28;20267;-65
2022/06/03 09:37:37;;;;;;;2.63;2.15;;;30.10;56.00;;;;;;5051815;28;20185;-66
2022/06/03 09:40:09;;;;;;;5.35;2.20;;;30.20;55.40;;;;;;5051741;28;20173;-65
2022/06/03 09:42:36;;;;;;;3.35;2.00;;;30.40;55.50;;;;;;5051704;28;20710;-65
2022/06/03 09:45:05;;;;;;;1.98;1.80;;;30.40;55.10;;;;;;5051860;28;20220;-65
2022/06/03 09:47:32;;;;;;;5.00;2.30;;;30.60;55.30;;;;;;5051906;28;20177;-65
2022/06/03 09:49:57;;;;;;;3.75;2.20;;;30.60;55.10;;;;;;5051691;28;20644;-66
2022/06/03 09:52:26;;;;;;;6.80;2.20;;;30.60;54.70;;;;;;5051659;28;20258;-65
2022/06/03 09:54:54;;;;;;;2.75;2.05;;;30.70;55.00;;;;;;5051762;28;20180;-66
2022/06/03 09:57:35;;;;;;;2.30;2.10;;;31.00;55.30;;;;;;5051804;28;20581;-66
2022/06/03 10:00:21;;;;;;;2.70;2.40;;;31.20;53.90;;;;;;5051653;28;20644;-65
2022/06/03 10:02:46;;;;;;;2.83;2.17;;;31.10;54.10;;;;;;5051800;28;20187;-66
2022/06/03 10:05:16;;;;;;;2.28;2.08;;;31.30;54.30;;;;;;5051577;28;20185;-66
2022/06/03 10:07:43;;;;;;;4.20;1.90;;;31.40;54.10;;;;;;5055363;28;20177;-66
2022/06/03 10:12:58;;;;;;;5.78;2.20;;;31.90;52.90;;;;;;5055265;28;20223;-66
2022/06/03 10:15:41;;;;;;;3.70;1.98;;;32.10;52.70;;;;;;5055248;28;20189;-67
2022/06/03 10:18:39;;;;;;;4.53;2.78;;;31.90;52.30;;;;;;5054954;28;20294;-66
2022/06/03 10:21:05;;;;;;;2.15;1.90;;;31.80;52.90;;;;;;5055067;28;20189;-66
2022/06/03 10:23:40;;;;;;;2.22;2.00;;;31.60;53.30;;;;;;5055136;28;20188;-66
2022/06/03 10:26:05;;;;;;;2.08;1.98;;;31.50;53.40;;;;;;5054951;28;20283;-66
2022/06/03 10:28:37;;;;;;;2.35;1.90;;;31.30;54.00;;;;;;5054931;28;20209;-66
2022/06/03 10:31:13;;;;;;;3.00;1.98;;;31.20;53.90;;;;;;5054838;28;20188;-66
2022/06/03 10:33:39;;;;;;;5.20;2.08;;;31.10;53.90;;;;;;5054920;28;20598;-66
2022/06/03 10:36:06;;;;;;;2.35;2.10;;;31.10;54.20;;;;;;5054763;28;20178;-66
2022/06/03 10:38:36;;;;;;;3.03;2.10;;;31.20;53.90;;;;;;5054852;28;20178;-66
2022/06/03 10:41:08;;;;;;;1.98;1.88;;;31.30;54.00;;;;;;5054717;28;20173;-66
2022/06/03 10:43:36;;;;;;;2.28;2.08;;;31.70;53.80;;;;;;5054681;28;20173;-66
2022/06/03 10:46:16;;;;;;;1.90;1.80;;;32.20;52.80;;;;;;5054549;28;20272;-66
2022/06/03 10:48:43;;;;;;;2.17;1.92;;;32.30;52.80;;;;;;5054649;28;20243;-66
2022/06/03 11:01:06;;;;;;;2.17;2.00;;;32.40;52.40;;;;;;5054340;28;20636;-66
2022/06/03 11:02:32;;;;;;;2.20;2.00;;;33.10;51.70;;;;;;5054633;28;20705;-66
2022/06/03 11:05:21;;;;;;;4.05;2.05;;;33.30;50.80;;;;;;5054282;28;20169;-66
2022/06/03 11:08:02;;;;;;;2.17;1.88;;;33.40;50.90;;;;;;5054227;28;20185;-66
2022/06/03 11:10:41;;;;;;;2.90;2.05;;;33.70;51.40;;;;;;5054103;28;20636;-66
2022/06/03 11:13:09;;;;;;;3.22;2.10;;;33.80;49.60;;;;;;5052841;28;20223;-66
2022/06/03 11:15:41;;;;;;;3.45;1.70;;;33.80;50.50;;;;;;5053995;28;20255;-66
2022/06/03 11:18:15;;;;;;;2.20;1.60;;;33.80;50.00;;;;;;5052800;28;20618;-66
2022/06/03 11:20:42;;;;;;;2.85;1.90;;;33.70;50.20;;;;;;5053954;28;20189;-66
2022/06/03 11:23:10;;;;;;;2.10;1.90;;;33.60;50.10;;;;;;5053816;28;20180;-66
2022/06/03 11:25:42;;;;;;;3.30;2.20;;;33.30;49.80;;;;;;5053763;28;20215;-66
2022/06/03 11:28:23;;;;;;;6.05;2.00;;;33.10;49.90;;;;;;5053771;28;20632;-66
2022/06/03 11:31:07;;;;;;;1.75;1.65;;;33.00;50.00;;;;;;5053828;28;20169;-66
2022/06/03 11:33:48;;;;;;;2.97;1.75;;;32.60;50.60;;;;;;5053642;28;20216;-66
2022/06/03 11:36:33;;;;;;;3.65;1.88;;;32.40;51.10;;;;;;5053608;28;20260;-66
2022/06/03 11:39:29;;;;;;;4.28;1.92;;;32.30;51.40;;;;;;5053744;28;20226;-66
2022/06/03 11:42:11;;;;;;;1.90;1.80;;;32.20;51.90;;;;;;5053453;28;20184;-66
2022/06/03 11:44:45;;;;;;;3.55;2.10;;;32.10;51.70;;;;;;5053560;28;20652;-66
2022/06/03 11:47:13;;;;;;;3.85;1.95;;;31.90;52.40;;;;;;5053522;28;20516;-66
2022/06/03 11:49:39;;;;;;;3.60;1.98;;;31.70;52.50;;;;;;5053521;28;20219;-66
2022/06/03 11:52:05;;;;;;;1.98;1.63;;;31.40;52.80;;;;;;5053544;28;20691;-66
2022/06/03 11:54:31;;;;;;;2.33;1.90;;;31.00;53.20;;;;;;5053502;28;20185;-66
2022/06/03 11:57:00;;;;;;;2.50;1.88;;;30.90;54.00;;;;;;5053227;28;20226;-66
2022/06/03 11:59:57;;;;;;;2.17;2.00;;;30.60;54.30;;;;;;5053324;28;20186;-66
2022/06/03 12:02:57;;;;;;;2.70;2.00;;;30.50;54.80;;;;;;5035408;28;20525;-66
2022/06/03 12:05:34;;;;;;;2.63;1.92;;;30.50;55.00;;;;;;5053158;28;20185;-66
2022/06/03 12:08:05;;;;;;;3.78;2.13;;;30.50;54.90;;;;;;5053315;28;20231;-66
2022/06/03 12:10:57;;;;;;;3.60;1.90;;;30.50;55.50;;;;;;5053205;28;20177;-66
2022/06/03 12:13:33;;;;;;;2.15;2.00;;;30.60;55.30;;;;;;5052922;28;20236;-66
2022/06/03 12:16:18;;;;;;;2.88;2.00;;;30.60;54.70;;;;;;5052978;28;20173;-65
2022/06/03 12:18:58;;;;;;;2.35;2.15;;;30.50;55.00;;;;;;5052782;28;20229;-65
2022/06/03 12:21:30;;;;;;;1.90;1.80;;;30.70;55.30;;;;;;5052837;28;20559;-65
2022/06/03 12:24:16;;;;;;;3.70;2.20;;;30.70;54.70;;;;;;5052637;28;20532;-66
2022/06/03 12:26:47;;;;;;;2.15;1.98;;;30.70;55.00;;;;;;5052624;28;20192;-65
2022/06/03 12:29:28;;;;;;;3.97;2.25;;;30.80;55.00;;;;;;5052733;28;20248;-65
2022/06/03 12:31:54;;;;;;;3.42;2.25;;;30.90;55.00;;;;;;5052555;28;20216;-65
2022/06/03 12:34:23;;;;;;;2.22;2.03;;;31.00;54.90;;;;;;5052647;28;20177;-65
2022/06/03 12:37:00;;;;;;;2.15;1.92;;;31.10;55.10;;;;;;5052585;28;20231;-66
2022/06/03 12:39:29;;;;;;;2.10;2.00;;;31.10;54.80;;;;;;5052560;28;20570;-65
2022/06/03 12:42:11;;;;;;;2.17;2.00;;;31.10;54.80;;;;;;5052353;28;20537;-65
2022/06/03 12:44:41;;;;;;;2.08;1.90;;;31.00;53.90;;;;;;5052588;28;20197;-65
2022/06/03 12:47:18;;;;;;;2.65;2.00;;;31.00;54.50;;;;;;5052385;28;20452;-67
2022/06/03 12:49:44;;;;;;;4.38;1.80;;;31.00;54.70;;;;;;5052414;28;20529;-64
2022/06/03 12:52:31;;;;;;;1.90;1.80;;;30.80;54.20;;;;;;5052149;28;20208;-66
2022/06/03 12:55:15;;;;;;;1.80;1.70;;;30.60;54.80;;;;;;5051988;28;20169;-64
2022/06/03 12:57:55;;;;;;;2.28;1.88;;;30.50;54.60;;;;;;5052408;28;20273;-64
2022/06/03 13:00:20;;;;;;;4.28;1.85;;;30.40;54.70;;;;;;5052332;28;20177;-64
2022/06/03 13:02:55;;;;;;;3.42;1.92;;;30.40;55.10;;;;;;5050972;28;20747;-65
2022/06/03 13:05:47;;;;;;;3.55;1.92;;;30.60;55.20;;;;;;5052107;28;20177;-64
2022/06/03 13:08:27;;;;;;;2.17;1.98;;;30.70;55.00;;;;;;5051743;28;20185;-65
2022/06/03 13:10:59;;;;;;;3.95;1.88;;;31.00;54.80;;;;;;5052015;28;20173;-65
2022/06/03 13:13:28;;;;;;;2.03;1.77;;;31.10;54.70;;;;;;5052089;28;20212;-64
2022/06/03 13:15:53;;;;;;;3.17;2.10;;;31.20;54.70;;;;;;5051979;28;20231;-64
2022/06/03 13:18:41;;;;;;;2.03;1.90;;;31.00;54.90;;;;;;5051952;28;20233;-64
2022/06/03 13:21:06;;;;;;;2.08;1.95;;;30.70;55.60;;;;;;5052041;28;20173;-64
2022/06/03 13:23:34;;;;;;;2.13;2.00;;;30.30;55.30;;;;;;5052052;28;20735;-66
2022/06/03 13:26:25;;;;;;;2.83;1.83;;;30.10;56.20;;;;;;5051979;28;20201;-66
2022/06/03 13:29:09;;;;;;;4.60;2.03;;;30.00;56.90;;;;;;5052069;28;20227;-66
2022/06/03 13:31:41;;;;;;;2.90;1.85;;;29.90;58.40;;;;;;5051968;28;20201;-65
2022/06/03 13:34:09;;;;;;;23.25;13.52;;;30.00;58.30;;;;;;5051916;28;20268;-65
2022/06/03 13:36:38;;;;;;;2.42;2.22;;;30.10;57.80;;;;;;5051814;28;20182;-66
2022/06/03 13:39:05;;;;;;;3.17;1.95;;;30.20;57.80;;;;;;5051919;28;20204;-65
2022/06/03 13:44:38;;;;;;;4.43;2.05;;;30.10;57.80;;;;;;5055861;28;20197;-65
2022/06/03 13:47:11;;;;;;;2.03;1.92;;;30.20;58.10;;;;;;5055735;28;20636;-65
2022/06/03 13:49:45;;;;;;;2.38;2.10;;;30.20;58.20;;;;;;5055755;28;20209;-65
2022/06/03 13:52:14;;;;;;;3.05;1.95;;;30.20;58.20;;;;;;5056723;28;20362;-65
2022/06/03 13:54:48;;;;;;;1.88;1.75;;;30.40;58.40;;;;;;5071913;28;20205;-65
2022/06/03 13:57:28;;;;;;;2.35;1.85;;;30.40;57.40;;;;;;5075101;28;20242;-65
2022/06/03 14:00:18;;;;;;;5.68;2.30;;;30.40;57.70;;;;;;5074560;28;20177;-64
2022/06/03 14:02:45;;;;;;;3.30;2.00;;;30.10;58.20;;;;;;5065876;28;20172;-65
2022/06/03 14:05:14;;;;;;;2.05;1.95;;;30.20;58.70;;;;;;5075257;28;20260;-66
2022/06/03 14:07:45;;;;;;;3.38;2.03;;;30.10;59.40;;;;;;5075112;28;20177;-65
2022/06/03 14:10:20;;;;;;;2.90;1.98;;;29.90;60.00;;;;;;5074385;28;20169;-67
2022/06/03 14:13:01;;;;;;;2.25;2.05;;;29.70;60.20;;;;;;5054165;28;20224;-66
2022/06/03 14:15:32;;;;;;;3.55;2.13;;;29.80;60.00;;;;;;5073219;28;20181;-71
2022/06/03 14:17:59;;;;;;;2.45;2.25;;;30.00;60.20;;;;;;5070717;28;20185;-68
2022/06/03 14:20:41;;;;;;;3.33;2.60;;;30.00;59.80;;;;;;5074971;28;20667;-69
2022/06/03 14:23:29;;;;;;;2.08;1.88;;;30.00;59.40;;;;;;5073801;28;20529;-68